Decoded Metar for PAPB (POINT BARROW in AK, USA) (IATA:N/A) | Meteo·Mobile Aviation Weather
aviador You're here:

PAPB Decoded Metar

POINT BARROW in AK, USA
Report Time2020-02-18 21:53:00
UTC Time2020-02-18 22:51:05
Flight Rules mvfr MVFR
Wind300° at 16 kt
W.Decomp.*RWY 29: 16.0 kt HW 0.3 kt LCW
Visibility9999 m
Phenomena:N/A
Clouds:Overcast 026 Hf
Expected CloudBase > 1,200 ft AGL from Temp-Dew spread
Ceiling2,600 ft
Temp-3°C (ISA -18)
Dew Point-6°C (80% RH)
AAT-11.5°C
QNH998 hPa
Density Alt-1,499 ft
Elevation115 ft
Report Wrong Elevation
Raw Report
PAPB 182153Z AUTO 30016KT 10SM OVC026 M03/M06 A2946 RMK AO2 SLP966
T10331061 TSNO $=

Extra information for PAPB:More info

Metar Taf Metar & Taf Last 4 Metars F.Rules Stats Wind Profile Meteogram Temp Stats Airport Information Weather charts Add Link Nearby VenuesMetar ALERT Operation Metar Decoded Social comments

AIRNAV info for PAPB